createdAt,value
2018-09-28T00:00:23.120Z,15.520325
2018-09-28T00:01:23.131Z,15.480042
2018-09-28T00:02:23.187Z,15.449829
2018-09-28T00:03:23.270Z,15.429688
2018-09-28T00:04:23.387Z,15.409546
2018-09-28T00:05:23.393Z,15.429688
2018-09-28T00:06:23.496Z,15.349121
2018-09-28T00:07:23.545Z,15.248413
2018-09-28T00:08:23.653Z,15.268555
2018-09-28T00:09:23.745Z,15.288696
2018-09-28T00:10:23.829Z,15.268555
2018-09-28T00:11:23.955Z,15.187988
2018-09-28T00:12:24.081Z,15.228271
2018-09-28T00:13:24.139Z,15.117493
2018-09-28T00:14:24.100Z,15.046997
2018-09-28T00:15:24.220Z,15.187988
2018-09-28T00:16:24.309Z,15.167847
2018-09-28T00:17:24.469Z,15.288696
2018-09-28T00:18:24.551Z,15.258484
2018-09-28T00:19:24.643Z,15.228271
2018-09-28T00:20:24.759Z,15.218201
2018-09-28T00:21:24.854Z,15.258484
2018-09-28T00:22:24.955Z,15.097351
2018-09-28T00:23:25.169Z,14.986572
2018-09-28T00:24:25.145Z,14.785156
2018-09-28T00:25:25.155Z,14.805298
2018-09-28T00:26:25.251Z,14.744873
2018-09-28T00:27:25.492Z,14.815369
2018-09-28T00:28:25.350Z,14.70459
2018-09-28T00:29:25.395Z,14.58374
2018-09-28T00:30:25.487Z,14.744873
2018-09-28T00:31:25.512Z,14.885864
2018-09-28T00:32:25.617Z,14.895935
2018-09-28T00:33:25.659Z,14.785156
2018-09-28T00:34:25.956Z,14.815369
2018-09-28T00:35:25.817Z,14.916077
2018-09-28T00:36:25.802Z,14.926147
2018-09-28T00:37:25.865Z,15.036926
2018-09-28T00:38:25.966Z,15.046997
2018-09-28T00:39:26.116Z,15.147705
2018-09-28T00:40:27.185Z,15.107422
2018-09-28T00:41:26.233Z,15.067139
2018-09-28T00:42:26.364Z,15.016785
2018-09-28T00:43:26.507Z,15.097351
2018-09-28T00:44:26.642Z,14.855652
2018-09-28T00:45:26.546Z,14.765015
2018-09-28T00:46:26.654Z,14.765015
2018-09-28T00:47:26.756Z,14.714661
2018-09-28T00:48:26.716Z,14.734802
2018-09-28T00:49:26.829Z,14.785156
2018-09-28T00:50:26.832Z,14.865723
2018-09-28T00:51:26.836Z,14.895935
2018-09-28T00:52:26.962Z,14.734802
2018-09-28T00:53:27.092Z,14.815369
2018-09-28T00:54:27.231Z,14.805298
2018-09-28T00:55:27.258Z,14.885864
2018-09-28T00:56:27.378Z,14.845581
2018-09-28T00:57:27.427Z,14.765015
2018-09-28T00:58:27.526Z,14.734802
2018-09-28T00:59:27.584Z,14.845581
2018-09-28T01:00:27.731Z,14.885864
2018-09-28T01:01:27.876Z,14.744873
2018-09-28T01:02:27.980Z,14.805298
2018-09-28T01:03:28.069Z,14.714661
2018-09-28T01:04:28.194Z,14.613953
2018-09-28T01:05:28.229Z,14.553528
2018-09-28T01:06:28.492Z,14.624023
2018-09-28T01:07:28.375Z,14.744873
2018-09-28T01:08:28.435Z,14.815369
2018-09-28T01:09:28.537Z,14.936218
2018-09-28T01:10:28.657Z,14.926147
2018-09-28T01:11:28.737Z,14.895935
2018-09-28T01:12:28.782Z,14.926147
2018-09-28T01:13:28.886Z,14.986572
2018-09-28T01:14:28.967Z,14.785156
2018-09-28T01:15:29.078Z,14.785156
2018-09-28T01:16:29.067Z,14.885864
2018-09-28T01:17:29.198Z,14.986572
2018-09-28T01:18:29.331Z,15.036926
2018-09-28T01:19:29.294Z,15.046997
2018-09-28T01:20:29.387Z,14.95636
2018-09-28T01:21:29.559Z,14.95636
2018-09-28T01:22:29.519Z,14.986572
2018-09-28T01:23:29.541Z,14.885864
2018-09-28T01:24:29.621Z,14.775085
2018-09-28T01:25:29.773Z,14.744873
2018-09-28T01:26:29.741Z,14.775085
2018-09-28T01:27:29.809Z,14.58374
2018-09-28T01:28:29.944Z,14.493103
2018-09-28T01:29:29.948Z,14.513245
2018-09-28T01:30:30.028Z,14.553528
2018-09-28T01:31:30.142Z,14.563599
2018-09-28T01:32:30.094Z,14.634094
2018-09-28T01:33:30.102Z,14.45282
2018-09-28T01:34:30.221Z,14.533386
2018-09-28T01:35:30.294Z,14.634094
2018-09-28T01:36:30.449Z,14.684448
2018-09-28T01:37:30.562Z,14.714661
2018-09-28T01:38:30.642Z,14.553528
2018-09-28T01:39:30.741Z,14.513245
2018-09-28T01:40:30.901Z,14.624023
2018-09-28T01:41:30.872Z,14.70459
2018-09-28T01:42:30.962Z,14.765015
2018-09-28T01:43:31.059Z,14.714661
2018-09-28T01:44:31.091Z,14.765015
2018-09-28T01:45:31.245Z,14.513245
2018-09-28T01:46:31.258Z,14.180908
2018-09-28T01:47:31.368Z,14.190979
2018-09-28T01:48:31.474Z,14.281616
2018-09-28T01:49:31.651Z,14.432678
2018-09-28T01:50:31.544Z,14.442749
2018-09-28T01:51:31.675Z,14.372253
2018-09-28T01:52:31.699Z,14.402466
2018-09-28T01:53:31.720Z,14.493103
2018-09-28T01:54:31.734Z,14.563599
2018-09-28T01:55:31.841Z,14.412537
2018-09-28T01:56:32.005Z,14.402466
2018-09-28T01:57:31.876Z,14.432678
2018-09-28T01:58:31.944Z,14.432678
2018-09-28T01:59:32.036Z,14.483032
2018-09-28T02:00:32.030Z,14.513245
2018-09-28T02:01:32.155Z,14.432678
2018-09-28T02:02:32.235Z,14.513245
2018-09-28T02:03:33.209Z,14.442749
2018-09-28T02:04:32.372Z,14.493103
2018-09-28T02:05:32.357Z,14.613953
2018-09-28T02:06:32.475Z,14.483032
2018-09-28T02:07:32.707Z,14.33197
2018-09-28T02:08:32.622Z,14.221191
2018-09-28T02:09:32.635Z,14.231262
2018-09-28T02:10:32.742Z,14.281616
2018-09-28T02:11:32.873Z,14.342041
2018-09-28T02:12:33.088Z,14.251404
2018-09-28T02:13:33.054Z,14.311829
2018-09-28T02:14:33.144Z,14.261475
2018-09-28T02:15:33.247Z,14.251404
2018-09-28T02:16:33.262Z,14.251404
2018-09-28T02:17:33.287Z,14.261475
2018-09-28T02:18:33.480Z,14.251404
2018-09-28T02:19:33.400Z,14.362183
2018-09-28T02:20:34.466Z,14.412537
2018-09-28T02:21:33.500Z,14.442749
2018-09-28T02:22:33.642Z,14.33197
2018-09-28T02:23:33.616Z,14.362183
2018-09-28T02:24:33.630Z,14.382324
2018-09-28T02:25:33.752Z,14.342041
2018-09-28T02:26:33.878Z,14.342041
2018-09-28T02:27:33.927Z,14.20105
2018-09-28T02:28:33.941Z,14.110413
2018-09-28T02:29:34.152Z,13.979492
2018-09-28T02:30:34.075Z,14.009705
2018-09-28T02:31:34.116Z,13.848572
2018-09-28T02:32:34.272Z,13.82843
2018-09-28T02:33:34.241Z,13.979492
2018-09-28T02:34:34.272Z,13.798218
2018-09-28T02:35:34.322Z,13.848572
2018-09-28T02:36:34.346Z,13.788147
2018-09-28T02:37:34.489Z,13.788147
2018-09-28T02:38:34.458Z,13.858643
2018-09-28T02:39:34.505Z,13.94928
2018-09-28T02:40:34.627Z,14.070129
2018-09-28T02:41:34.733Z,14.160767
2018-09-28T02:42:34.797Z,14.0802
2018-09-28T02:43:34.854Z,14.039917
2018-09-28T02:44:34.960Z,14.180908
2018-09-28T02:45:35.086Z,14.130554
2018-09-28T02:46:35.194Z,14.049988
2018-09-28T02:47:35.246Z,13.868713
2018-09-28T02:48:35.339Z,13.546448
2018-09-28T02:49:35.464Z,13.566589
2018-09-28T02:50:35.460Z,13.616943
2018-09-28T02:51:35.510Z,13.757935
2018-09-28T02:52:35.645Z,13.908997
2018-09-28T02:53:35.942Z,14.049988
2018-09-28T02:54:35.827Z,14.130554
2018-09-28T02:55:35.912Z,14.070129
2018-09-28T02:56:36.026Z,14.029846
2018-09-28T02:57:36.246Z,14.029846
2018-09-28T02:58:36.254Z,14.009705
2018-09-28T02:59:36.332Z,14.009705
2018-09-28T03:00:36.415Z,13.979492
2018-09-28T03:01:36.524Z,13.727722
2018-09-28T03:02:36.630Z,13.727722
2018-09-28T03:03:36.761Z,13.858643
2018-09-28T03:04:36.803Z,13.778076
2018-09-28T03:05:36.825Z,13.858643
2018-09-28T03:06:36.811Z,13.82843
2018-09-28T03:07:36.808Z,13.929138
2018-09-28T03:08:37.055Z,13.94928
2018-09-28T03:09:36.969Z,14.009705
2018-09-28T03:10:37.037Z,13.979492
2018-09-28T03:11:37.143Z,14.070129
2018-09-28T03:12:37.244Z,14.009705
2018-09-28T03:13:37.284Z,13.778076
2018-09-28T03:14:37.416Z,13.606873
2018-09-28T03:15:37.497Z,13.637085
2018-09-28T03:16:37.629Z,13.747864
2018-09-28T03:17:37.616Z,13.727722
2018-09-28T03:18:37.701Z,13.69751
2018-09-28T03:19:37.926Z,13.788147
2018-09-28T03:20:37.841Z,13.888855
2018-09-28T03:21:38.001Z,13.999634
2018-09-28T03:22:38.102Z,13.999634
2018-09-28T03:23:38.276Z,13.888855
2018-09-28T03:24:38.279Z,13.868713
2018-09-28T03:25:38.384Z,13.888855
2018-09-28T03:26:38.385Z,13.94928
2018-09-28T03:27:38.478Z,14.029846
2018-09-28T03:28:38.562Z,14.029846
2018-09-28T03:29:38.547Z,14.029846
2018-09-28T03:30:38.551Z,14.039917
2018-09-28T03:31:38.648Z,14.0802
2018-09-28T03:32:38.757Z,14.029846
2018-09-28T03:33:38.839Z,13.979492
2018-09-28T03:34:38.972Z,13.999634
2018-09-28T03:35:39.080Z,14.039917
2018-09-28T03:36:39.133Z,14.049988
2018-09-28T03:37:39.183Z,13.858643
2018-09-28T03:38:39.297Z,13.757935
2018-09-28T03:39:39.472Z,13.908997
2018-09-28T03:40:39.724Z,13.858643
2018-09-28T03:41:39.669Z,13.868713
2018-09-28T03:42:39.793Z,13.868713
2018-09-28T03:43:39.902Z,13.888855
2018-09-28T03:44:40.092Z,13.848572
2018-09-28T03:45:39.931Z,13.818359
2018-09-28T03:46:40.046Z,13.868713
2018-09-28T03:47:40.077Z,13.848572
2018-09-28T03:48:40.169Z,13.82843
2018-09-28T03:49:40.163Z,13.647156
2018-09-28T03:50:40.312Z,13.69751
2018-09-28T03:51:40.438Z,13.667297
2018-09-28T03:52:40.553Z,13.637085
2018-09-28T03:53:40.668Z,13.566589
2018-09-28T03:54:40.767Z,13.677368
2018-09-28T03:55:40.954Z,13.848572
2018-09-28T03:56:40.914Z,13.888855
2018-09-28T03:57:41.018Z,13.929138
2018-09-28T03:58:41.179Z,13.979492
2018-09-28T03:59:41.269Z,13.979492
2018-09-28T04:00:41.255Z,13.888855
2018-09-28T04:01:41.365Z,13.888855
2018-09-28T04:02:41.487Z,13.848572
2018-09-28T04:03:41.755Z,13.82843
2018-09-28T04:04:41.728Z,13.908997
2018-09-28T04:05:41.745Z,13.82843
2018-09-28T04:06:41.886Z,13.788147
2018-09-28T04:07:42.157Z,13.778076
2018-09-28T04:08:42.119Z,13.798218
2018-09-28T04:09:42.115Z,13.788147
2018-09-28T04:10:42.256Z,13.788147
2018-09-28T04:11:42.389Z,13.757935
2018-09-28T04:12:42.493Z,13.747864
2018-09-28T04:13:42.522Z,13.69751
2018-09-28T04:14:43.653Z,13.747864
2018-09-28T04:15:43.727Z,13.747864
2018-09-28T04:16:42.709Z,13.778076
2018-09-28T04:17:42.794Z,13.788147
2018-09-28T04:18:43.014Z,13.788147
2018-09-28T04:19:42.966Z,13.57666
2018-09-28T04:20:43.070Z,13.57666
2018-09-28T04:21:43.170Z,13.606873
2018-09-28T04:22:43.170Z,13.395386
2018-09-28T04:23:43.185Z,13.385315
2018-09-28T04:24:43.308Z,13.455811
2018-09-28T04:25:43.360Z,13.536377
2018-09-28T04:26:43.522Z,13.566589
2018-09-28T04:27:43.576Z,13.546448
2018-09-28T04:28:43.641Z,13.486023
2018-09-28T04:29:43.744Z,13.355103
2018-09-28T04:30:43.822Z,13.304749
2018-09-28T04:31:43.972Z,13.244324
2018-09-28T04:32:44.027Z,13.244324
2018-09-28T04:33:44.155Z,13.314819
2018-09-28T04:34:44.286Z,13.385315
2018-09-28T04:35:44.375Z,13.395386
2018-09-28T04:36:44.453Z,13.455811
2018-09-28T04:37:44.465Z,13.486023
2018-09-28T04:38:44.547Z,13.486023
2018-09-28T04:39:44.713Z,13.516235
2018-09-28T04:40:44.787Z,13.566589
2018-09-28T04:41:44.931Z,13.516235
2018-09-28T04:42:44.948Z,13.486023
2018-09-28T04:43:45.119Z,13.465881
2018-09-28T04:44:45.258Z,13.486023
2018-09-28T04:45:45.386Z,13.465881
2018-09-28T04:46:45.336Z,13.486023
2018-09-28T04:47:45.385Z,13.465881
2018-09-28T04:48:45.388Z,13.365173
2018-09-28T04:49:45.484Z,13.425598
2018-09-28T04:50:45.579Z,13.486023
2018-09-28T04:51:45.478Z,13.536377
2018-09-28T04:52:45.572Z,13.486023
2018-09-28T04:53:45.730Z,13.425598
2018-09-28T04:55:42.127Z,13.465881
2018-09-28T04:57:23.385Z,13.204041
2018-09-28T04:58:23.274Z,13.244324
2018-09-28T04:59:23.386Z,13.314819
2018-09-28T05:00:23.494Z,13.365173
2018-09-28T05:01:23.517Z,13.385315
2018-09-28T05:02:23.644Z,13.425598
2018-09-28T05:03:23.713Z,13.415527
2018-09-28T05:04:23.802Z,13.314819
2018-09-28T05:05:23.839Z,13.395386
2018-09-28T05:06:23.898Z,13.536377
2018-09-28T05:27:03.426Z,13.44574
2018-09-28T05:28:03.417Z,13.536377
2018-09-28T05:29:03.605Z,13.566589
2018-09-28T05:30:03.655Z,13.546448
2018-09-28T05:31:03.730Z,13.516235
2018-09-28T05:32:03.997Z,13.546448
2018-09-28T05:33:03.999Z,13.395386
2018-09-28T05:34:04.023Z,13.455811
2018-09-28T05:35:04.109Z,13.486023
2018-09-28T05:36:04.221Z,13.57666
2018-09-28T05:37:04.286Z,13.647156
2018-09-28T05:38:04.314Z,13.566589
2018-09-28T05:39:04.444Z,13.516235
2018-09-28T05:40:04.462Z,13.516235
2018-09-28T05:41:04.558Z,13.606873
2018-09-28T05:42:04.566Z,13.606873
2018-09-28T05:43:04.688Z,13.606873
2018-09-28T05:44:04.915Z,13.606873
2018-09-28T05:45:04.865Z,13.637085
2018-09-28T05:46:04.920Z,13.616943
2018-09-28T05:47:05.013Z,13.596802
2018-09-28T05:48:05.188Z,13.486023
2018-09-28T05:49:05.245Z,13.516235
2018-09-28T05:50:05.308Z,13.546448
2018-09-28T05:51:05.444Z,13.516235
2018-09-28T05:52:05.667Z,13.516235
2018-09-28T05:53:05.641Z,13.516235
2018-09-28T05:54:05.829Z,13.536377
2018-09-28T05:55:05.918Z,13.57666
2018-09-28T05:56:06.052Z,13.677368
2018-09-28T05:57:06.109Z,13.677368
2018-09-28T05:58:06.216Z,13.637085
2018-09-28T05:59:06.351Z,13.637085
2018-09-28T06:00:06.514Z,13.546448
2018-09-28T06:01:06.421Z,13.57666
2018-09-28T06:02:06.533Z,13.516235
2018-09-28T06:03:06.643Z,13.616943
2018-09-28T06:04:06.810Z,13.637085
2018-09-28T06:05:06.974Z,13.647156
2018-09-28T06:06:07.041Z,13.616943
2018-09-28T06:07:07.171Z,13.57666
2018-09-28T06:08:07.299Z,13.616943
2018-09-28T06:09:07.453Z,13.44574
2018-09-28T06:10:07.577Z,13.425598
2018-09-28T06:11:07.589Z,13.496094
2018-09-28T06:12:07.700Z,13.455811
2018-09-28T06:13:07.779Z,13.465881
2018-09-28T06:14:07.872Z,13.536377
2018-09-28T06:15:07.998Z,13.616943
2018-09-28T06:16:08.111Z,13.616943
2018-09-28T06:17:08.101Z,13.616943
2018-09-28T06:18:08.212Z,13.647156
2018-09-28T06:19:08.345Z,13.647156
2018-09-28T06:20:08.481Z,13.667297
2018-09-28T06:21:08.514Z,13.516235
2018-09-28T06:22:08.567Z,13.496094
2018-09-28T06:23:08.770Z,13.516235
2018-09-28T06:24:08.804Z,13.57666
2018-09-28T06:25:08.753Z,13.707581
2018-09-28T06:26:08.789Z,13.667297
2018-09-28T06:27:08.741Z,13.727722
2018-09-28T06:28:08.844Z,13.818359
2018-09-28T06:29:08.964Z,13.747864
2018-09-28T06:30:09.145Z,13.788147
2018-09-28T06:31:09.123Z,13.868713
2018-09-28T06:32:09.111Z,13.82843
2018-09-28T06:33:09.130Z,13.818359
2018-09-28T06:34:10.124Z,13.858643
2018-09-28T06:35:09.243Z,13.727722
2018-09-28T06:36:09.442Z,13.667297
2018-09-28T06:37:09.503Z,13.778076
2018-09-28T06:38:09.652Z,13.798218
2018-09-28T06:39:09.638Z,13.888855
2018-09-28T06:40:09.710Z,13.94928
2018-09-28T06:41:09.831Z,13.94928
2018-09-28T06:42:09.998Z,13.979492
2018-09-28T06:43:10.016Z,13.979492
2018-09-28T06:44:10.085Z,14.009705
2018-09-28T06:45:10.190Z,13.94928
2018-09-28T06:46:10.362Z,14.029846
2018-09-28T06:47:10.389Z,14.049988
2018-09-28T06:48:10.461Z,14.120483
2018-09-28T06:49:10.551Z,14.130554
2018-09-28T06:50:10.621Z,14.039917
2018-09-28T06:51:11.043Z,14.180908
2018-09-28T06:52:10.885Z,14.281616
2018-09-28T06:53:11.047Z,14.372253
2018-09-28T06:54:11.263Z,14.493103
2018-09-28T06:55:11.265Z,14.523315
2018-09-28T06:56:11.309Z,14.493103
2018-09-28T06:57:11.437Z,14.563599
2018-09-28T06:58:11.613Z,14.523315
2018-09-28T06:59:11.805Z,14.342041
2018-09-28T07:00:11.892Z,14.483032
2018-09-28T07:01:11.982Z,14.593811
2018-09-28T07:02:12.059Z,14.70459
2018-09-28T07:03:12.191Z,14.805298
2018-09-28T07:04:12.221Z,14.895935
2018-09-28T07:05:12.276Z,14.926147
2018-09-28T07:06:12.501Z,14.936218
2018-09-28T07:07:12.476Z,14.855652
2018-09-28T07:08:12.399Z,14.916077
2018-09-28T07:09:12.516Z,14.95636
2018-09-28T07:10:12.574Z,14.986572
2018-09-28T07:11:12.703Z,14.966431
2018-09-28T07:12:12.846Z,15.016785
2018-09-28T07:13:12.773Z,14.996643
2018-09-28T07:14:12.973Z,15.046997
2018-09-28T07:15:13.028Z,15.107422
2018-09-28T07:16:13.171Z,15.167847
2018-09-28T07:17:13.231Z,15.258484
2018-09-28T07:18:13.462Z,15.288696
2018-09-28T07:19:13.491Z,15.288696
2018-09-28T07:20:13.590Z,15.318909
2018-09-28T07:21:13.578Z,15.349121
2018-09-28T07:22:13.593Z,15.318909
2018-09-28T07:23:13.607Z,15.328979
2018-09-28T07:24:13.610Z,15.359192
2018-09-28T07:25:13.803Z,15.439758
2018-09-28T07:26:13.653Z,15.449829
2018-09-28T07:27:13.781Z,15.449829
2018-09-28T07:28:13.901Z,15.510254
2018-09-28T07:29:14.105Z,15.570679
2018-09-28T07:30:14.121Z,15.570679
2018-09-28T07:31:14.070Z,15.59082
2018-09-28T07:32:14.156Z,15.550537
2018-09-28T07:33:14.144Z,15.59082
2018-09-28T07:34:14.239Z,15.621033
2018-09-28T07:35:14.321Z,15.661316
2018-09-28T07:36:14.476Z,15.701599
2018-09-28T07:37:14.472Z,15.782166
2018-09-28T07:38:14.346Z,15.721741
2018-09-28T07:39:14.476Z,15.762024
2018-09-28T07:40:14.477Z,15.83252
2018-09-28T07:41:14.529Z,15.872803
2018-09-28T07:42:14.642Z,15.923157
2018-09-28T07:43:14.777Z,15.943298
2018-09-28T07:44:14.898Z,15.96344
2018-09-28T07:45:14.973Z,16.054077
2018-09-28T07:46:15.099Z,16.104431
2018-09-28T07:47:15.134Z,16.174927
2018-09-28T07:48:15.276Z,16.184998
2018-09-28T07:49:15.447Z,16.245422
2018-09-28T07:50:15.447Z,16.305847
2018-09-28T07:51:15.488Z,16.386414
2018-09-28T07:52:15.625Z,16.46698
2018-09-28T07:53:15.675Z,16.33606
2018-09-28T07:54:15.803Z,16.285706
2018-09-28T07:55:15.939Z,16.315918
2018-09-28T07:56:16.032Z,16.366272
2018-09-28T07:57:16.264Z,16.366272
2018-09-28T07:58:16.228Z,16.366272
2018-09-28T07:59:16.266Z,16.305847
2018-09-28T08:00:16.387Z,16.305847
2018-09-28T08:01:16.510Z,16.356201
2018-09-28T08:02:16.685Z,16.21521
2018-09-28T08:03:16.797Z,16.21521
2018-09-28T08:04:16.914Z,16.21521
2018-09-28T08:05:17.195Z,16.275635
2018-09-28T08:06:17.152Z,16.275635
2018-09-28T08:07:17.184Z,16.245422
2018-09-28T08:08:17.268Z,16.305847
2018-09-28T08:09:17.405Z,16.396484
2018-09-28T08:10:17.444Z,16.426697
2018-09-28T08:11:17.504Z,16.426697
2018-09-28T08:12:17.686Z,16.255493
2018-09-28T08:13:17.684Z,16.366272
2018-09-28T08:14:17.790Z,16.497192
2018-09-28T08:15:17.891Z,16.456909
2018-09-28T08:16:18.059Z,16.507263
2018-09-28T08:17:18.201Z,16.547546
2018-09-28T08:18:18.301Z,16.618042
2018-09-28T08:19:18.273Z,16.688538
2018-09-28T08:20:18.416Z,16.678467
2018-09-28T08:21:18.550Z,16.638184
2018-09-28T08:22:18.586Z,16.728821
2018-09-28T08:23:18.713Z,16.71875
2018-09-28T08:24:18.642Z,16.789246
2018-09-28T08:25:18.722Z,16.859741
2018-09-28T08:26:18.827Z,16.819458
2018-09-28T08:27:18.868Z,16.789246
2018-09-28T08:28:19.033Z,16.819458
2018-09-28T08:29:19.023Z,16.819458
2018-09-28T08:30:19.035Z,16.829529
2018-09-28T08:31:19.188Z,16.859741
2018-09-28T08:32:19.321Z,16.889954
2018-09-28T08:33:19.476Z,16.910095
2018-09-28T08:34:19.454Z,16.8396
2018-09-28T08:36:16.028Z,16.819458
2018-09-28T08:37:16.148Z,16.920166
2018-09-28T08:38:16.234Z,16.859741
2018-09-28T08:39:16.451Z,16.819458
2018-09-28T08:40:16.369Z,16.97052
2018-09-28T08:41:16.478Z,17.051086
2018-09-28T08:42:16.565Z,17.141724
2018-09-28T08:43:16.588Z,17.192078
2018-09-28T08:44:16.622Z,17.141724
2018-09-28T08:45:16.892Z,17.192078
2018-09-28T08:46:16.874Z,17.302856
2018-09-28T08:47:16.871Z,17.312927
2018-09-28T09:04:41.997Z,17.242432
2018-09-28T09:05:42.009Z,17.282715
2018-09-28T09:06:42.136Z,17.312927
2018-09-28T09:07:42.249Z,17.35321
2018-09-28T09:08:42.394Z,17.393494
2018-09-28T09:09:42.513Z,17.423706
2018-09-28T09:10:42.480Z,17.463989
2018-09-28T09:11:42.631Z,17.544556
2018-09-28T09:12:42.660Z,17.494202
2018-09-28T09:13:42.810Z,17.463989
2018-09-28T09:14:42.919Z,17.34314
2018-09-28T09:15:42.949Z,17.463989
2018-09-28T09:16:43.069Z,17.564697
2018-09-28T09:17:43.110Z,17.625122
2018-09-28T09:18:43.237Z,17.60498
2018-09-28T09:19:43.359Z,17.524414
2018-09-28T09:20:43.361Z,17.534485
2018-09-28T09:21:43.339Z,17.59491
2018-09-28T09:22:43.437Z,17.675476
2018-09-28T09:23:43.657Z,17.675476
2018-09-28T09:24:43.669Z,17.60498
2018-09-28T09:25:43.680Z,17.645264
2018-09-28T09:26:43.834Z,17.705688
2018-09-28T09:27:43.955Z,17.756042
2018-09-28T09:28:44.034Z,17.685547
2018-09-28T09:29:44.046Z,17.72583
2018-09-28T09:30:44.191Z,17.816467
2018-09-28T09:31:44.346Z,17.927246
2018-09-28T09:32:44.449Z,17.907104
2018-09-28T09:33:44.477Z,17.897034
2018-09-28T09:34:44.541Z,17.947388
2018-09-28T09:35:44.566Z,17.967529
2018-09-28T09:36:44.686Z,17.967529
2018-09-28T09:37:44.766Z,18.027954
2018-09-28T09:38:44.925Z,17.907104
2018-09-28T09:39:45.034Z,17.997742
2018-09-28T09:40:45.165Z,18.118591
2018-09-28T09:41:45.273Z,18.189087
2018-09-28T09:42:45.497Z,18.269653
2018-09-28T09:43:45.226Z,18.239441
2018-09-28T09:44:45.292Z,18.22937
2018-09-28T09:45:45.335Z,18.189087
2018-09-28T09:46:45.386Z,18.22937
2018-09-28T09:47:45.504Z,18.22937
2018-09-28T09:48:45.546Z,18.058167
2018-09-28T09:49:45.656Z,18.118591
2018-09-28T09:50:45.674Z,18.158875
2018-09-28T09:51:45.733Z,18.158875
2018-09-28T09:52:45.755Z,18.189087
2018-09-28T09:53:45.789Z,18.22937
2018-09-28T09:55:42.792Z,18.239441
2018-09-28T09:56:42.982Z,18.279724
2018-09-28T09:57:42.951Z,18.299866
2018-09-28T09:58:43.059Z,18.239441
2018-09-28T09:59:43.203Z,18.239441
2018-09-28T10:01:29.296Z,18.269653
2018-09-28T10:02:29.390Z,18.330078
2018-09-28T10:03:29.569Z,18.340149
2018-09-28T10:04:29.514Z,18.420715
2018-09-28T10:05:29.604Z,18.410645
2018-09-28T10:06:29.630Z,18.450928
2018-09-28T10:07:29.668Z,18.491211
2018-09-28T10:09:08.921Z,18.491211
2018-09-28T10:10:09.074Z,18.642273
2018-09-28T10:11:09.188Z,18.632202
2018-09-28T10:12:09.288Z,18.662415
2018-09-28T10:13:09.381Z,18.612061
2018-09-28T10:14:09.502Z,18.632202
2018-09-28T10:15:09.512Z,18.702698
2018-09-28T10:16:09.548Z,18.763123
2018-09-28T10:17:09.749Z,18.712769
2018-09-28T10:18:09.797Z,18.783264
2018-09-28T10:19:10.884Z,18.712769
2018-09-28T10:24:02.374Z,18.783264
2018-09-28T10:25:02.476Z,18.702698
2018-09-28T10:26:02.638Z,18.672485
2018-09-28T10:27:02.700Z,18.682556
2018-09-28T10:28:02.777Z,18.531494
2018-09-28T10:29:02.748Z,18.551636
2018-09-28T10:30:02.919Z,18.712769
2018-09-28T10:31:02.930Z,18.894043
2018-09-28T10:32:02.925Z,18.924255
2018-09-28T10:33:03.045Z,18.883972
2018-09-28T10:34:03.052Z,18.883972
2018-09-28T10:35:03.112Z,18.964539
2018-09-28T10:36:03.154Z,18.883972
2018-09-28T10:37:03.288Z,18.914185
2018-09-28T10:38:03.437Z,18.894043
2018-09-28T10:39:03.348Z,19.004822
2018-09-28T10:42:00.332Z,19.115601
2018-09-28T10:43:00.466Z,19.186096
2018-09-28T10:44:00.468Z,19.226379
2018-09-28T10:45:00.539Z,19.256592
2018-09-28T10:46:00.815Z,19.367371
2018-09-28T10:47:01.107Z,19.216309
2018-09-28T10:48:00.780Z,19.23645
2018-09-28T10:49:00.878Z,19.196167
2018-09-28T10:50:01.076Z,19.256592
2018-09-28T10:51:00.930Z,19.417725
2018-09-28T10:52:01.164Z,19.367371
2018-09-28T10:53:01.127Z,19.347229
2018-09-28T10:54:01.163Z,19.317017
2018-09-28T10:55:01.151Z,19.377441
2018-09-28T10:56:02.210Z,19.296875
2018-09-28T10:57:01.639Z,19.337158
2018-09-28T10:58:01.943Z,19.387512
2018-09-28T10:59:01.305Z,19.548645
2018-09-28T11:00:01.440Z,19.568787
2018-09-28T11:01:01.564Z,19.478149
2018-09-28T11:02:01.584Z,19.367371
2018-09-28T11:03:01.658Z,19.347229
2018-09-28T11:04:01.851Z,19.296875
2018-09-28T11:05:01.811Z,19.045105
2018-09-28T11:06:01.874Z,18.823547
2018-09-28T11:07:01.911Z,18.924255
2018-09-28T11:08:02.016Z,19.045105
2018-09-28T11:09:02.111Z,18.98468
2018-09-28T11:10:02.076Z,18.894043
2018-09-28T11:11:02.223Z,19.115601
2018-09-28T11:12:02.328Z,19.10553
2018-09-28T11:13:02.401Z,19.256592
2018-09-28T11:14:02.500Z,19.407654
2018-09-28T11:15:02.536Z,19.155884
2018-09-28T11:16:02.660Z,19.004822
2018-09-28T11:17:02.695Z,19.115601
2018-09-28T11:18:02.706Z,18.98468
2018-09-28T11:19:02.792Z,18.964539
2018-09-28T11:20:02.744Z,19.014893
2018-09-28T11:21:02.842Z,18.944397
2018-09-28T11:22:02.944Z,19.165955
2018-09-28T11:23:03.088Z,19.256592
2018-09-28T11:24:03.124Z,19.437866
2018-09-28T11:25:03.209Z,19.619141
2018-09-28T11:26:03.293Z,19.588928
2018-09-28T11:27:03.438Z,19.750061
2018-09-28T11:28:03.543Z,19.709778
2018-09-28T11:29:03.619Z,19.73999
2018-09-28T11:30:03.628Z,19.709778
2018-09-28T11:31:03.626Z,19.588928
2018-09-28T11:32:03.780Z,19.568787
2018-09-28T11:33:03.894Z,19.588928
2018-09-28T11:34:05.211Z,19.750061
2018-09-28T11:35:04.101Z,19.870911
2018-09-28T11:36:04.084Z,19.870911
2018-09-28T11:37:04.176Z,19.780273
2018-09-28T11:38:04.255Z,19.780273
2018-09-28T11:39:04.387Z,19.810486
2018-09-28T11:40:04.546Z,19.921265
2018-09-28T11:41:04.615Z,20.021973
2018-09-28T11:42:04.621Z,20.082397
2018-09-28T11:43:04.738Z,20.223389
2018-09-28T11:44:04.718Z,20.293884
2018-09-28T11:45:04.718Z,20.303955
2018-09-28T11:46:04.856Z,20.213318
2018-09-28T11:47:05.136Z,20.344238
2018-09-28T11:48:05.136Z,20.334167
2018-09-28T11:49:05.269Z,20.394592
2018-09-28T11:50:05.279Z,20.324097
2018-09-28T11:51:05.401Z,20.394592
2018-09-28T11:52:05.425Z,20.444946
2018-09-28T11:53:05.543Z,20.424805
2018-09-28T11:54:05.680Z,20.475159
2018-09-28T11:55:05.742Z,20.303955
2018-09-28T11:56:05.899Z,20.324097
2018-09-28T11:57:06.079Z,20.293884
2018-09-28T11:58:06.032Z,20.303955
2018-09-28T11:59:06.020Z,20.334167
2018-09-28T12:00:06.185Z,20.24353
2018-09-28T12:01:06.227Z,20.293884
2018-09-28T12:02:06.297Z,20.193176
2018-09-28T12:04:22.090Z,20.183105
2018-09-28T12:05:22.151Z,20.404663
2018-09-28T12:07:18.775Z,20.394592
2018-09-28T12:08:18.829Z,20.374451
2018-09-28T12:09:18.985Z,20.575867
2018-09-28T12:10:19.053Z,20.585938
2018-09-28T12:35:40.596Z,30.082703
2018-09-28T12:36:40.729Z,30.183411
2018-09-28T12:37:40.553Z,29.579163
2018-09-28T12:38:40.573Z,29.760437
2018-09-28T12:39:40.665Z,29.196472
2018-09-28T12:40:40.654Z,29.579163